Sedalia, Colorado
Current Conditions -  °F | °C
As of 2:53 PM on Thursday 20 Nov 2014 (Local Time) from KAPA Reporting Station
Broken Clouds Broken Clouds  
Wind Chill: 45°   Ceiling: 15000
Heat Index: 49°   Visibility: 10mi
Dew Point: 23°   Wind: 9mph
Humidity: 36%   Direction: 360°N
Pressure: 29.94"   Gusts: NA
Location:  39.44°N, 104.96°W
Report Text: KAPA 202153Z 36008KT 10SM SCT110 BKN150 BKN220 09/M05 A2994 RMK AO2 SLP148 SHRA OMTNS DSNT W-NW T00941050
Loading
Personal Weather Stations






























Interactive Weather Map New forecast layout! Learn more

10-Day Weather Forecast

Advertisements
Track Severe Weather on mobile